Pucklechurch, United Kingdom
Current Conditions -  °F | °C
As of 1:20 PM on Sunday 23 Nov 2014 (Local Time) from EGGD Reporting Station
Few Clouds Few Clouds  
Wind Chill: 43°   Ceiling: Unl
Heat Index: 46°   Visibility: 6mi
Dew Point: 43°   Wind: 7mph
Humidity: 87%   Direction: 330°NNW
Pressure: 30.03"   Gusts: NA
Location:  51.49°N, 2.43°W
Report Text: EGGD 231320Z 33006KT 9999 FEW018 08/06 Q1017
Loading
Personal Weather Stations






























Interactive Weather Map New forecast layout! Learn more

10-Day Weather Forecast

Advertisements
Track Severe Weather on mobile